Time;durP1;ratioP1;P1;durP2;ratioP2;P2;SDS_P1;SDS_P2;PMS_P1;PMS_P2;Temp;Humidity;BMP_temperature;BMP_pressure;BME280_temperature;BME280_humidity;BME280_pressure;Samples;Min_cycle;Max_cycle;Signal;HPM_P1;HPM_P2
2022/02/13 00:00:24;;;;;;;0.20;0.20;;;;;;;;;;5044874;28;20116;-83
2022/02/13 00:02:50;;;;;;;0.28;0.28;;;;;;;;;;5044664;28;20928;-84
2022/02/13 00:05:17;;;;;;;1.80;1.80;;;;;;;;;;5045788;28;20559;-83
2022/02/13 00:07:43;;;;;;;32.40;30.75;;;;;;;;;;5044491;28;20075;-84
2022/02/13 00:10:10;;;;;;;51.87;49.17;;;;;;;;;;5044421;28;20282;-83
2022/02/13 00:12:36;;;;;;;;;;;;;;;;;;5044869;28;20041;-84
2022/02/13 00:15:03;;;;;;;0.20;0.20;;;;;;;;;;5044596;28;19916;-83
2022/02/13 00:17:29;;;;;;;0.32;0.32;;;;;;;;;;5044123;28;20928;-83
2022/02/13 00:19:55;;;;;;;3.35;3.25;;;;;;;;;;5044236;28;20037;-83
2022/02/13 00:22:22;;;;;;;0.20;0.20;;;;;;;;;;5023637;28;20025;-83
2022/02/13 00:24:49;;;;;;;2.30;2.25;;;;;;;;;;5044093;28;20044;-83
2022/02/13 00:27:15;;;;;;;11.82;11.32;;;;;;;;;;5044600;28;20575;-83
2022/02/13 00:29:42;;;;;;;9.50;9.07;;;;;;;;;;5025876;28;20393;-83
2022/02/13 00:32:09;;;;;;;79.50;75.43;;;;;;;;;;5044497;28;20056;-83
2022/02/13 00:34:35;;;;;;;0.20;0.20;;;;;;;;;;5042515;28;20052;-85
2022/02/13 00:37:01;;;;;;;0.20;0.20;;;;;;;;;;5043866;28;20036;-84
2022/02/13 00:39:28;;;;;;;0.20;0.20;;;;;;;;;;5043791;28;20043;-83
2022/02/13 00:41:54;;;;;;;0.30;0.30;;;;;;;;;;5043872;28;20083;-84
2022/02/13 00:44:20;;;;;;;0.20;0.20;;;;;;;;;;5043980;28;20303;-83
2022/02/13 00:46:46;;;;;;;0.30;0.30;;;;;;;;;;5043692;28;20029;-83
2022/02/13 00:49:14;;;;;;;0.22;0.22;;;;;;;;;;5043629;28;20032;-84
2022/02/13 00:51:40;;;;;;;0.20;0.20;;;;;;;;;;5043723;28;20037;-84
2022/02/13 00:54:06;;;;;;;0.30;0.30;;;;;;;;;;5043669;28;20029;-84
2022/02/13 00:56:32;;;;;;;0.20;0.20;;;;;;;;;;5043324;28;20267;-83
2022/02/13 00:58:58;;;;;;;0.20;0.20;;;;;;;;;;5044391;28;20041;-84
2022/02/13 01:01:24;;;;;;;0.20;0.20;;;;;;;;;;5043339;28;20774;-84
2022/02/13 01:03:50;;;;;;;0.20;0.20;;;;;;;;;;5043295;28;20598;-84
2022/02/13 01:06:16;;;;;;;0.20;0.20;;;;;;;;;;5042168;28;20593;-83
2022/02/13 01:08:43;;;;;;;0.30;0.30;;;;;;;;;;5043449;28;20032;-83
2022/02/13 01:11:09;;;;;;;0.30;0.30;;;;;;;;;;5025509;28;20662;-83
2022/02/13 01:13:35;;;;;;;0.30;0.30;;;;;;;;;;5043309;28;20039;-83
2022/02/13 01:16:01;;;;;;;0.30;0.30;;;;;;;;;;5043362;28;20504;-83
2022/02/13 01:18:28;;;;;;;0.20;0.20;;;;;;;;;;5025474;28;20029;-83
2022/02/13 01:20:54;;;;;;;0.20;0.20;;;;;;;;;;5043184;28;20096;-85
2022/02/13 01:23:20;;;;;;;0.20;0.20;;;;;;;;;;5043301;28;20040;-87
2022/02/13 01:25:47;;;;;;;0.20;0.20;;;;;;;;;;5042774;28;20040;-85
2022/02/13 01:28:13;;;;;;;0.20;0.20;;;;;;;;;;5043067;28;20028;-87
2022/02/13 01:30:40;;;;;;;0.30;0.30;;;;;;;;;;5042865;28;20136;-85
2022/02/13 01:33:06;;;;;;;0.35;0.35;;;;;;;;;;5042851;28;20134;-86
2022/02/13 01:35:32;;;;;;;0.20;0.20;;;;;;;;;;5025263;28;20017;-86
2022/02/13 01:37:58;;;;;;;0.20;0.20;;;;;;;;;;5043675;28;20028;-83
2022/02/13 01:40:24;;;;;;;0.20;0.20;;;;;;;;;;5041684;28;20029;-84
2022/02/13 01:42:50;;;;;;;0.30;0.30;;;;;;;;;;5042840;28;20090;-84
2022/02/13 01:45:16;;;;;;;0.30;0.30;;;;;;;;;;5043068;28;20491;-84
2022/02/13 01:47:42;;;;;;;0.20;0.20;;;;;;;;;;5042932;28;20029;-84
2022/02/13 01:50:10;;;;;;;0.40;0.40;;;;;;;;;;5043227;28;20507;-84
2022/02/13 01:52:37;;;;;;;0.35;0.35;;;;;;;;;;5043466;28;20086;-83
2022/02/13 01:55:03;;;;;;;0.20;0.20;;;;;;;;;;5038104;28;20032;-83
2022/02/13 01:57:29;;;;;;;0.20;0.20;;;;;;;;;;5032732;28;20033;-83
2022/02/13 01:59:56;;;;;;;0.80;0.80;;;;;;;;;;5031148;28;20025;-83
2022/02/13 02:02:22;;;;;;;0.30;0.30;;;;;;;;;;5041539;28;20032;-84
2022/02/13 02:04:53;;;;;;;0.20;0.20;;;;;;;;;;5038312;28;20029;-84
2022/02/13 02:07:19;;;;;;;0.20;0.20;;;;;;;;;;5021519;28;20036;-85
2022/02/13 02:09:46;;;;;;;0.20;0.20;;;;;;;;;;5024335;28;20097;-84
2022/02/13 02:12:12;;;;;;;0.30;0.30;;;;;;;;;;5037928;28;20029;-85
2022/02/13 02:14:38;;;;;;;0.20;0.20;;;;;;;;;;5024264;28;20041;-84
2022/02/13 02:17:04;;;;;;;0.20;0.20;;;;;;;;;;5043451;28;20955;-84
2022/02/13 02:19:31;;;;;;;0.20;0.20;;;;;;;;;;5042657;28;20484;-86
2022/02/13 02:21:57;;;;;;;0.20;0.20;;;;;;;;;;5042401;28;20111;-86
2022/02/13 02:24:23;;;;;;;0.20;0.20;;;;;;;;;;5042614;28;20465;-85
2022/02/13 02:26:49;;;;;;;0.20;0.20;;;;;;;;;;5042524;28;20041;-86
2022/02/13 02:29:17;;;;;;;0.30;0.30;;;;;;;;;;5031154;28;20036;-86
2022/02/13 02:31:42;;;;;;;;;;;;;;;;;;5042785;28;20103;-86
2022/02/13 02:34:08;;;;;;;0.70;0.65;;;;;;;;;;5042320;28;19916;-86
2022/02/13 02:36:35;;;;;;;0.30;0.30;;;;;;;;;;5042336;28;20044;-82
2022/02/13 02:39:01;;;;;;;0.30;0.30;;;;;;;;;;5041890;28;20043;-82
2022/02/13 02:41:27;;;;;;;0.20;0.20;;;;;;;;;;5041768;28;20116;-82
2022/02/13 02:43:53;;;;;;;0.20;0.20;;;;;;;;;;5042675;28;20032;-81
2022/02/13 02:46:19;;;;;;;0.50;0.50;;;;;;;;;;5040172;28;20120;-82
2022/02/13 02:48:45;;;;;;;0.82;0.82;;;;;;;;;;5041796;28;20061;-81
2022/02/13 02:51:11;;;;;;;0.40;0.40;;;;;;;;;;5041737;28;20055;-81
2022/02/13 02:53:37;;;;;;;0.50;0.50;;;;;;;;;;5042242;28;20415;-81
2022/02/13 02:56:04;;;;;;;0.20;0.20;;;;;;;;;;5042252;28;20021;-81
2022/02/13 02:58:30;;;;;;;0.30;0.30;;;;;;;;;;5041784;28;20454;-83
2022/02/13 03:00:57;;;;;;;0.40;0.40;;;;;;;;;;5041846;28;20061;-84
2022/02/13 03:03:23;;;;;;;0.28;0.28;;;;;;;;;;5041903;28;20025;-83
2022/02/13 03:05:49;;;;;;;0.20;0.20;;;;;;;;;;5045370;28;20529;-92
2022/02/13 03:08:16;;;;;;;0.65;0.65;;;;;;;;;;5033310;28;20079;-93
2022/02/13 03:10:43;;;;;;;0.30;0.30;;;;;;;;;;5047996;28;20033;-89
2022/02/13 03:13:11;;;;;;;0.50;0.50;;;;;;;;;;5046248;28;20033;-89
2022/02/13 03:15:37;;;;;;;0.28;0.28;;;;;;;;;;5045180;28;20025;-88
2022/02/13 03:18:03;;;;;;;0.60;0.60;;;;;;;;;;5045616;28;20075;-87
2022/02/13 03:20:29;;;;;;;0.60;0.60;;;;;;;;;;5045193;28;20523;-88
2022/02/13 03:22:55;;;;;;;1.02;1.02;;;;;;;;;;5045822;28;20036;-87
2022/02/13 03:25:21;;;;;;;0.30;0.30;;;;;;;;;;5045289;28;20064;-88
2022/02/13 03:27:47;;;;;;;0.30;0.30;;;;;;;;;;5044969;28;20901;-88
2022/02/13 03:30:13;;;;;;;0.20;0.20;;;;;;;;;;5046593;28;20075;-89
2022/02/13 03:32:39;;;;;;;0.43;0.43;;;;;;;;;;5045636;28;20049;-85
2022/02/13 03:35:05;;;;;;;0.30;0.30;;;;;;;;;;5046010;28;20025;-90
2022/02/13 03:37:32;;;;;;;0.63;0.63;;;;;;;;;;5045845;28;20061;-90
2022/02/13 03:39:57;;;;;;;0.40;0.40;;;;;;;;;;5045731;28;20025;-89
2022/02/13 03:42:24;;;;;;;0.30;0.30;;;;;;;;;;5045719;28;20037;-87
2022/02/13 03:44:50;;;;;;;0.20;0.20;;;;;;;;;;5044567;28;20079;-88
2022/02/13 03:47:16;;;;;;;;;;;;;;;;;;5046013;28;20120;-88
2022/02/13 03:49:42;;;;;;;3.10;0.75;;;;;;;;;;5045114;28;20025;-87
2022/02/13 03:52:09;;;;;;;0.20;0.20;;;;;;;;;;5044700;28;20067;-88
2022/02/13 03:54:35;;;;;;;0.30;0.30;;;;;;;;;;5045086;28;20096;-88
2022/02/13 03:57:01;;;;;;;0.30;0.30;;;;;;;;;;5044499;28;20507;-89
2022/02/13 03:59:27;;;;;;;0.20;0.20;;;;;;;;;;5044620;28;20472;-89
2022/02/13 04:01:53;;;;;;;0.30;0.30;;;;;;;;;;5045530;28;20496;-89
2022/02/13 04:04:19;;;;;;;0.30;0.30;;;;;;;;;;5043496;28;20032;-84
2022/02/13 04:06:45;;;;;;;0.30;0.30;;;;;;;;;;5044842;28;20041;-83
2022/02/13 04:09:11;;;;;;;0.20;0.20;;;;;;;;;;5044583;28;20515;-83
2022/02/13 04:11:38;;;;;;;0.30;0.30;;;;;;;;;;5044234;28;20037;-84
2022/02/13 04:14:04;;;;;;;0.50;0.50;;;;;;;;;;5044150;28;20036;-85
2022/02/13 04:16:30;;;;;;;1.45;1.45;;;;;;;;;;5044452;28;20041;-84
2022/02/13 04:18:56;;;;;;;0.30;0.30;;;;;;;;;;5044152;28;20040;-83
2022/02/13 04:21:23;;;;;;;0.20;0.20;;;;;;;;;;5043750;28;20029;-84
2022/02/13 04:23:49;;;;;;;0.30;0.30;;;;;;;;;;5043444;28;20029;-84
2022/02/13 04:26:15;;;;;;;0.30;0.30;;;;;;;;;;5044834;28;20037;-84
2022/02/13 04:28:41;;;;;;;0.20;0.20;;;;;;;;;;5043858;28;20408;-83
2022/02/13 04:31:07;;;;;;;0.30;0.30;;;;;;;;;;5044044;28;20100;-85
2022/02/13 04:33:33;;;;;;;0.30;0.30;;;;;;;;;;5042633;28;20159;-84
2022/02/13 04:35:59;;;;;;;0.20;0.20;;;;;;;;;;5044110;28;20036;-85
2022/02/13 04:38:25;;;;;;;0.30;0.30;;;;;;;;;;5044175;28;20033;-82
2022/02/13 04:40:51;;;;;;;0.20;0.20;;;;;;;;;;5044558;28;20461;-82
2022/02/13 04:43:17;;;;;;;0.20;0.20;;;;;;;;;;5044217;28;20068;-83
2022/02/13 04:45:43;;;;;;;0.30;0.30;;;;;;;;;;5043930;28;20017;-84
2022/02/13 04:48:09;;;;;;;0.25;0.25;;;;;;;;;;5043734;28;20512;-84
2022/02/13 04:50:35;;;;;;;0.25;0.25;;;;;;;;;;5025257;28;20041;-83
2022/02/13 04:53:01;;;;;;;0.20;0.20;;;;;;;;;;5044169;28;20033;-83
2022/02/13 04:55:27;;;;;;;0.30;0.30;;;;;;;;;;5043554;28;20095;-83
2022/02/13 04:57:53;;;;;;;0.20;0.20;;;;;;;;;;5043248;28;20037;-84
2022/02/13 05:00:20;;;;;;;0.20;0.20;;;;;;;;;;5043700;28;20047;-82
2022/02/13 05:02:46;;;;;;;0.20;0.20;;;;;;;;;;5040527;28;20094;-82
2022/02/13 05:05:13;;;;;;;0.20;0.20;;;;;;;;;;5043866;28;20036;-86
2022/02/13 05:07:39;;;;;;;0.20;0.20;;;;;;;;;;5043654;28;20557;-91
2022/02/13 05:10:05;;;;;;;0.20;0.20;;;;;;;;;;5046245;28;20036;-90
2022/02/13 05:12:32;;;;;;;0.22;0.22;;;;;;;;;;5046384;28;20033;-91
2022/02/13 05:14:58;;;;;;;0.20;0.20;;;;;;;;;;5043492;28;20179;-86
2022/02/13 05:17:24;;;;;;;0.20;0.20;;;;;;;;;;5025612;28;20283;-86
2022/02/13 05:19:50;;;;;;;0.20;0.20;;;;;;;;;;5043966;28;20025;-88
2022/02/13 05:22:17;;;;;;;0.20;0.20;;;;;;;;;;5043629;28;20060;-89
2022/02/13 05:24:45;;;;;;;0.20;0.20;;;;;;;;;;5042810;28;20680;-82
2022/02/13 05:27:13;;;;;;;0.20;0.20;;;;;;;;;;5042913;28;20029;-82
2022/02/13 05:29:39;;;;;;;0.22;0.22;;;;;;;;;;5042344;28;20025;-84
2022/02/13 05:32:06;;;;;;;0.20;0.20;;;;;;;;;;5043256;28;20041;-84
2022/02/13 05:34:32;;;;;;;0.20;0.20;;;;;;;;;;5042702;28;20566;-86
2022/02/13 05:36:58;;;;;;;0.20;0.20;;;;;;;;;;5042909;28;20136;-86
2022/02/13 05:39:24;;;;;;;0.20;0.20;;;;;;;;;;5042904;28;20511;-85
2022/02/13 05:41:50;;;;;;;0.20;0.20;;;;;;;;;;5042564;28;20107;-87
2022/02/13 05:44:16;;;;;;;0.20;0.20;;;;;;;;;;5043685;28;20127;-86
2022/02/13 05:46:42;;;;;;;0.30;0.30;;;;;;;;;;5043138;28;20434;-86
2022/02/13 05:49:08;;;;;;;0.30;0.30;;;;;;;;;;5042331;28;20329;-85
2022/02/13 05:51:35;;;;;;;0.25;0.25;;;;;;;;;;5042552;28;20369;-85
2022/02/13 05:54:01;;;;;;;0.25;0.25;;;;;;;;;;5042620;28;20108;-86
2022/02/13 05:56:27;;;;;;;0.60;0.60;;;;;;;;;;5043011;28;20029;-89
2022/02/13 05:58:53;;;;;;;0.45;0.45;;;;;;;;;;5043389;28;20072;-87
2022/02/13 06:01:19;;;;;;;0.30;0.30;;;;;;;;;;5042101;28;20482;-87
2022/02/13 06:03:46;;;;;;;0.25;0.25;;;;;;;;;;5039209;28;20029;-88
2022/02/13 06:06:12;;;;;;;0.30;0.30;;;;;;;;;;5043205;28;20082;-89
2022/02/13 06:08:39;;;;;;;0.30;0.30;;;;;;;;;;5042954;28;20035;-88
2022/02/13 06:11:05;;;;;;;0.20;0.20;;;;;;;;;;5043907;28;20282;-89
2022/02/13 06:13:31;;;;;;;0.20;0.20;;;;;;;;;;5043265;28;20072;-88
2022/02/13 06:15:58;;;;;;;0.20;0.20;;;;;;;;;;5042656;28;20033;-87
2022/02/13 06:18:24;;;;;;;0.20;0.20;;;;;;;;;;5042949;28;20033;-88
2022/02/13 06:20:51;;;;;;;0.30;0.30;;;;;;;;;;5042579;28;20032;-87
2022/02/13 06:23:17;;;;;;;0.20;0.20;;;;;;;;;;5043852;28;20123;-90
2022/02/13 06:25:43;;;;;;;0.20;0.20;;;;;;;;;;5041704;28;20147;-88
2022/02/13 06:28:09;;;;;;;0.20;0.20;;;;;;;;;;5042388;28;20021;-87
2022/02/13 06:30:35;;;;;;;0.20;0.20;;;;;;;;;;5041013;28;20779;-86
2022/02/13 06:33:03;;;;;;;0.20;0.20;;;;;;;;;;5041598;28;20167;-85
2022/02/13 06:35:30;;;;;;;0.20;0.20;;;;;;;;;;5041848;28;20950;-86
2022/02/13 06:37:55;;;;;;;;;;;;;;;;;;5046994;28;20033;-87
2022/02/13 06:40:21;;;;;;;0.28;0.28;;;;;;;;;;5046896;28;19913;-88
2022/02/13 06:42:47;;;;;;;0.20;0.20;;;;;;;;;;5046013;28;20036;-85
2022/02/13 06:45:14;;;;;;;0.22;0.22;;;;;;;;;;5046611;28;20025;-84
2022/02/13 06:47:41;;;;;;;0.25;0.25;;;;;;;;;;5046160;28;20109;-81
2022/02/13 06:50:07;;;;;;;0.20;0.20;;;;;;;;;;5047258;28;20033;-86
2022/02/13 06:52:33;;;;;;;0.20;0.20;;;;;;;;;;5047195;28;20037;-89
2022/02/13 06:55:00;;;;;;;0.30;0.30;;;;;;;;;;5046777;28;20143;-90
2022/02/13 06:57:26;;;;;;;0.20;0.20;;;;;;;;;;5047999;28;20283;-90
2022/02/13 06:59:52;;;;;;;0.22;0.22;;;;;;;;;;5048098;28;20048;-91
2022/02/13 07:02:18;;;;;;;0.20;0.20;;;;;;;;;;5048427;28;20537;-91
2022/02/13 07:04:44;;;;;;;0.20;0.20;;;;;;;;;;5046936;28;20032;-90
2022/02/13 07:07:10;;;;;;;0.30;0.30;;;;;;;;;;5044711;28;20044;-90
2022/02/13 07:09:36;;;;;;;0.20;0.20;;;;;;;;;;5041883;28;20071;-88
2022/02/13 07:12:09;;;;;;;0.30;0.30;;;;;;;;;;5034349;28;20505;-89
2022/02/13 07:14:38;;;;;;;0.20;0.20;;;;;;;;;;5025255;28;20065;-89
2022/02/13 07:17:04;;;;;;;0.20;0.20;;;;;;;;;;5044800;28;20051;-87
2022/02/13 07:19:30;;;;;;;0.20;0.20;;;;;;;;;;5046503;28;20029;-88
2022/02/13 07:21:56;;;;;;;0.20;0.20;;;;;;;;;;5019479;28;20032;-87
2022/02/13 07:24:22;;;;;;;0.30;0.30;;;;;;;;;;5018938;28;21064;-88
2022/02/13 07:26:48;;;;;;;0.30;0.30;;;;;;;;;;5042761;28;20145;-87
2022/02/13 07:29:14;;;;;;;0.30;0.30;;;;;;;;;;5042275;28;20059;-86
2022/02/13 07:31:41;;;;;;;0.40;0.40;;;;;;;;;;5042226;28;20087;-87
2022/02/13 07:34:07;;;;;;;0.40;0.40;;;;;;;;;;5040909;28;20654;-87
2022/02/13 07:36:34;;;;;;;0.30;0.30;;;;;;;;;;5041790;28;20032;-86
2022/02/13 07:39:00;;;;;;;0.30;0.30;;;;;;;;;;5042710;28;20061;-87
2022/02/13 07:41:27;;;;;;;0.30;0.30;;;;;;;;;;5038432;28;20024;-87
2022/02/13 07:43:53;;;;;;;0.30;0.30;;;;;;;;;;5044574;28;20134;-87
2022/02/13 07:46:23;;;;;;;0.30;0.30;;;;;;;;;;5043373;28;20033;-88
2022/02/13 07:48:49;;;;;;;0.40;0.40;;;;;;;;;;5039575;28;20024;-87
2022/02/13 07:51:16;;;;;;;0.30;0.30;;;;;;;;;;5043456;28;20060;-87
2022/02/13 07:53:45;;;;;;;0.77;0.77;;;;;;;;;;5043590;28;20032;-89
2022/02/13 07:56:11;;;;;;;0.40;0.40;;;;;;;;;;5040746;28;20025;-89
2022/02/13 07:58:37;;;;;;;0.50;0.50;;;;;;;;;;5045073;28;20643;-89
2022/02/13 08:01:04;;;;;;;0.40;0.40;;;;;;;;;;5046125;28;20118;-89
2022/02/13 08:03:30;;;;;;;0.50;0.50;;;;;;;;;;5033727;28;20120;-88
2022/02/13 08:05:56;;;;;;;0.95;0.95;;;;;;;;;;5045979;28;20411;-88
2022/02/13 08:08:22;;;;;;;0.50;0.50;;;;;;;;;;5045604;28;20051;-92
2022/02/13 08:10:49;;;;;;;0.40;0.40;;;;;;;;;;5043662;28;20078;-84
2022/02/13 08:13:15;;;;;;;0.40;0.40;;;;;;;;;;5044127;28;20052;-89
2022/02/13 08:15:41;;;;;;;0.50;0.50;;;;;;;;;;5041532;28;20029;-89
2022/02/13 08:18:08;;;;;;;0.50;0.50;;;;;;;;;;5043081;28;20094;-90
2022/02/13 08:20:34;;;;;;;;;;;;;;;;;;5039722;28;20417;-86
2022/02/13 08:23:00;;;;;;;0.70;0.70;;;;;;;;;;5031959;28;19913;-84
2022/02/13 08:25:26;;;;;;;0.50;0.50;;;;;;;;;;5033096;28;20112;-85
2022/02/13 08:27:52;;;;;;;0.50;0.50;;;;;;;;;;5036227;28;20036;-89
2022/02/13 08:30:18;;;;;;;0.40;0.40;;;;;;;;;;5038189;28;20453;-89
2022/02/13 08:32:44;;;;;;;0.50;0.50;;;;;;;;;;5045297;28;20118;-89
2022/02/13 08:35:11;;;;;;;0.50;0.50;;;;;;;;;;5046746;28;20051;-92
2022/02/13 08:37:37;;;;;;;0.50;0.50;;;;;;;;;;5028700;28;20374;-88
2022/02/13 08:40:03;;;;;;;0.50;0.50;;;;;;;;;;5042673;28;20053;-89
2022/02/13 08:42:29;;;;;;;0.52;0.52;;;;;;;;;;5038255;28;20033;-84
2022/02/13 08:44:55;;;;;;;0.50;0.50;;;;;;;;;;5038958;28;20044;-88
2022/02/13 08:47:21;;;;;;;0.40;0.40;;;;;;;;;;5039363;28;20040;-88
2022/02/13 08:49:49;;;;;;;0.50;0.50;;;;;;;;;;5039004;28;20385;-87
2022/02/13 08:52:16;;;;;;;0.45;0.45;;;;;;;;;;5036943;28;20862;-86
2022/02/13 08:54:42;;;;;;;0.40;0.40;;;;;;;;;;5021792;28;20021;-91
2022/02/13 08:57:08;;;;;;;0.50;0.50;;;;;;;;;;5037697;28;20042;-90
2022/02/13 08:59:34;;;;;;;0.50;0.50;;;;;;;;;;5043018;28;20027;-89
2022/02/13 09:02:01;;;;;;;0.50;0.50;;;;;;;;;;5023451;28;20135;-91
2022/02/13 09:04:27;;;;;;;0.50;0.50;;;;;;;;;;5041979;28;20076;-92
2022/02/13 09:06:54;;;;;;;0.50;0.50;;;;;;;;;;5046177;28;20116;-92
2022/02/13 09:09:20;;;;;;;0.60;0.60;;;;;;;;;;5028810;28;20271;-89
2022/02/13 09:11:47;;;;;;;0.47;0.47;;;;;;;;;;5043585;28;20112;-91
2022/02/13 09:14:13;;;;;;;0.40;0.40;;;;;;;;;;5042729;28;20524;-90
2022/02/13 09:16:39;;;;;;;0.60;0.60;;;;;;;;;;5036205;28;20030;-91
2022/02/13 09:19:07;;;;;;;0.63;0.63;;;;;;;;;;5041735;28;20162;-87
2022/02/13 09:21:33;;;;;;;0.50;0.50;;;;;;;;;;5036696;28;20051;-89
2022/02/13 09:23:59;;;;;;;0.50;0.50;;;;;;;;;;5038090;28;20033;-87
2022/02/13 09:26:25;;;;;;;0.50;0.50;;;;;;;;;;5040773;28;20032;-91
2022/02/13 09:28:51;;;;;;;0.60;0.60;;;;;;;;;;5033721;28;20040;-92
2022/02/13 09:31:18;;;;;;;0.50;0.50;;;;;;;;;;5017724;28;20654;-88
2022/02/13 09:33:44;;;;;;;0.50;0.50;;;;;;;;;;5042857;28;20408;-86
2022/02/13 09:36:10;;;;;;;0.40;0.40;;;;;;;;;;5035718;28;20036;-91
2022/02/13 09:38:37;;;;;;;0.50;0.50;;;;;;;;;;5043303;28;20496;-92
2022/02/13 09:41:05;;;;;;;0.50;0.50;;;;;;;;;;5039316;28;20057;-87
2022/02/13 09:43:31;;;;;;;0.50;0.50;;;;;;;;;;5040254;28;20496;-86
2022/02/13 09:45:58;;;;;;;0.60;0.60;;;;;;;;;;5038563;28;20036;-86
2022/02/13 09:48:28;;;;;;;0.60;0.60;;;;;;;;;;5041912;28;20074;-85
2022/02/13 09:50:58;;;;;;;0.60;0.60;;;;;;;;;;5042357;28;20484;-85
2022/02/13 09:53:24;;;;;;;0.57;0.57;;;;;;;;;;5042339;28;20775;-85
2022/02/13 09:55:50;;;;;;;0.60;0.60;;;;;;;;;;5041899;28;20025;-86
2022/02/13 09:58:16;;;;;;;0.57;0.57;;;;;;;;;;5042265;28;20040;-85
2022/02/13 10:00:49;;;;;;;0.47;0.47;;;;;;;;;;5041039;28;20037;-85
2022/02/13 10:03:18;;;;;;;0.45;0.45;;;;;;;;;;5039071;28;20040;-86
2022/02/13 10:05:44;;;;;;;0.40;0.40;;;;;;;;;;5042896;28;20021;-85
2022/02/13 10:08:10;;;;;;;0.47;0.47;;;;;;;;;;5042851;28;20031;-84
2022/02/13 10:10:36;;;;;;;0.50;0.50;;;;;;;;;;5042605;28;20033;-85
2022/02/13 10:13:04;;;;;;;0.40;0.40;;;;;;;;;;5041625;28;20051;-85
2022/02/13 10:15:32;;;;;;;0.50;0.50;;;;;;;;;;5042853;28;20128;-85
2022/02/13 10:18:08;;;;;;;0.47;0.47;;;;;;;;;;5042939;28;20056;-85
2022/02/13 10:20:36;;;;;;;0.50;0.50;;;;;;;;;;5042550;28;20039;-85
2022/02/13 10:23:06;;;;;;;0.50;0.50;;;;;;;;;;5043122;28;20032;-85
2022/02/13 10:25:32;;;;;;;0.50;0.50;;;;;;;;;;5042487;28;20017;-85
2022/02/13 10:27:58;;;;;;;0.50;0.50;;;;;;;;;;5042548;28;20037;-85
2022/02/13 10:30:34;;;;;;;0.50;0.50;;;;;;;;;;5042621;28;20446;-86
2022/02/13 10:33:19;;;;;;;0.40;0.40;;;;;;;;;;5042466;28;20091;-85
2022/02/13 10:36:03;;;;;;;0.40;0.40;;;;;;;;;;5042722;28;20495;-85
2022/02/13 10:38:30;;;;;;;0.40;0.40;;;;;;;;;;5040777;28;20094;-85
2022/02/13 10:41:15;;;;;;;0.40;0.40;;;;;;;;;;5042845;28;20399;-85
2022/02/13 10:44:01;;;;;;;0.40;0.40;;;;;;;;;;5042562;28;20048;-84
2022/02/13 10:46:37;;;;;;;0.40;0.40;;;;;;;;;;5042840;28;20107;-85
2022/02/13 10:49:04;;;;;;;0.30;0.30;;;;;;;;;;5041210;28;20029;-85
2022/02/13 10:51:30;;;;;;;0.40;0.40;;;;;;;;;;5042235;28;20182;-85
2022/02/13 10:53:57;;;;;;;0.40;0.40;;;;;;;;;;5037968;28;20033;-85
2022/02/13 10:56:23;;;;;;;0.30;0.30;;;;;;;;;;5042628;28;20267;-85
2022/02/13 10:58:55;;;;;;;0.40;0.40;;;;;;;;;;5042264;28;20025;-85
2022/02/13 11:01:22;;;;;;;0.40;0.40;;;;;;;;;;5041979;28;20040;-85
2022/02/13 11:03:48;;;;;;;0.40;0.40;;;;;;;;;;5036880;28;20642;-85
2022/02/13 11:06:15;;;;;;;0.30;0.30;;;;;;;;;;5042212;28;20056;-85
2022/02/13 11:09:11;;;;;;;0.30;0.30;;;;;;;;;;5041697;28;20132;-84
2022/02/13 11:11:39;;;;;;;0.50;0.50;;;;;;;;;;5010544;28;20056;-85
2022/02/13 11:14:05;;;;;;;0.40;0.40;;;;;;;;;;5040982;28;20037;-84
2022/02/13 11:16:31;;;;;;;0.40;0.40;;;;;;;;;;5041758;28;20049;-85
2022/02/13 11:19:03;;;;;;;0.40;0.40;;;;;;;;;;5041800;28;20033;-85
2022/02/13 11:21:30;;;;;;;0.50;0.50;;;;;;;;;;5041750;28;20272;-85
2022/02/13 11:23:57;;;;;;;0.50;0.50;;;;;;;;;;5042637;28;20032;-85
2022/02/13 11:26:23;;;;;;;;;;;;;;;;;;5045988;28;20025;-85
2022/02/13 11:28:54;;;;;;;0.50;0.50;;;;;;;;;;5045390;28;19928;-85
2022/02/13 11:31:32;;;;;;;0.40;0.40;;;;;;;;;;5043702;28;20049;-85
2022/02/13 11:33:58;;;;;;;0.50;0.50;;;;;;;;;;5045096;28;20057;-85
2022/02/13 11:36:48;;;;;;;0.50;0.50;;;;;;;;;;5045011;28;20854;-85
2022/02/13 11:39:32;;;;;;;0.50;0.50;;;;;;;;;;5032535;28;20045;-86
2022/02/13 11:41:59;;;;;;;0.50;0.50;;;;;;;;;;5030843;28;20452;-84
2022/02/13 11:44:25;;;;;;;;;;;;;;;;;;5045807;28;20104;-85
2022/02/13 11:46:51;;;;;;;0.45;0.45;;;;;;;;;;5045485;28;20011;-85
2022/02/13 11:49:17;;;;;;;0.50;0.50;;;;;;;;;;5045079;28;20522;-85
2022/02/13 11:51:43;;;;;;;5.65;0.98;;;;;;;;;;5044576;28;20036;-85
2022/02/13 11:54:09;;;;;;;0.40;0.40;;;;;;;;;;5044546;28;20094;-85
2022/02/13 11:56:35;;;;;;;0.47;0.47;;;;;;;;;;5044567;28;20036;-85
2022/02/13 11:59:01;;;;;;;0.40;0.40;;;;;;;;;;5045698;28;20017;-84
2022/02/13 12:01:36;;;;;;;0.40;0.40;;;;;;;;;;5044596;28;20029;-85
2022/02/13 12:04:03;;;;;;;0.60;0.60;;;;;;;;;;5041565;28;20036;-84
2022/02/13 12:06:30;;;;;;;0.38;0.38;;;;;;;;;;5044861;28;20043;-85
2022/02/13 12:08:57;;;;;;;0.40;0.40;;;;;;;;;;5044492;28;20033;-85
2022/02/13 12:11:28;;;;;;;0.40;0.40;;;;;;;;;;5044912;28;20094;-86
2022/02/13 12:13:54;;;;;;;0.40;0.40;;;;;;;;;;5044110;28;20060;-85
2022/02/13 12:16:24;;;;;;;0.40;0.40;;;;;;;;;;5043828;28;20138;-86
2022/02/13 12:18:50;;;;;;;0.30;0.30;;;;;;;;;;5044474;28;20182;-86
2022/02/13 12:21:17;;;;;;;0.30;0.30;;;;;;;;;;5044369;28;20036;-85
2022/02/13 12:23:43;;;;;;;0.30;0.30;;;;;;;;;;5044525;28;20515;-85
2022/02/13 12:26:09;;;;;;;0.30;0.30;;;;;;;;;;5045511;28;20056;-85
2022/02/13 12:28:38;;;;;;;0.30;0.30;;;;;;;;;;5044775;28;20025;-85
2022/02/13 12:31:05;;;;;;;0.30;0.30;;;;;;;;;;5044256;28;20041;-86
2022/02/13 12:33:34;;;;;;;0.40;0.40;;;;;;;;;;5044533;28;20048;-85
2022/02/13 12:36:00;;;;;;;43.22;40.80;;;;;;;;;;5043783;28;20374;-86
2022/02/13 12:38:31;;;;;;;1.03;1.03;;;;;;;;;;5044236;28;20094;-86
2022/02/13 12:40:58;;;;;;;0.57;0.57;;;;;;;;;;5044426;28;20112;-86
2022/02/13 12:43:24;;;;;;;0.47;0.47;;;;;;;;;;5044052;28;20098;-86
2022/02/13 12:45:51;;;;;;;0.20;0.20;;;;;;;;;;5043863;28;20037;-85
2022/02/13 12:48:17;;;;;;;;;;;;;;;;;;5044358;28;20104;-86
2022/02/13 12:50:47;;;;;;;0.25;0.25;;;;;;;;;;5026123;28;20007;-86
2022/02/13 12:53:15;;;;;;;0.20;0.20;;;;;;;;;;5044741;28;20064;-85
2022/02/13 12:55:42;;;;;;;0.20;0.20;;;;;;;;;;5043581;28;20025;-85
2022/02/13 12:58:08;;;;;;;0.20;0.20;;;;;;;;;;5043322;28;20040;-85
2022/02/13 13:00:56;;;;;;;0.30;0.30;;;;;;;;;;5043460;28;20025;-85
2022/02/13 13:03:26;;;;;;;0.25;0.25;;;;;;;;;;5040070;28;20671;-85
2022/02/13 13:05:52;;;;;;;0.30;0.30;;;;;;;;;;5028433;28;20033;-85
2022/02/13 13:08:22;;;;;;;0.20;0.20;;;;;;;;;;5044361;28;20025;-85
2022/02/13 13:10:51;;;;;;;0.20;0.20;;;;;;;;;;5043067;28;20252;-85
2022/02/13 13:13:19;;;;;;;0.20;0.20;;;;;;;;;;5043123;28;20064;-85
2022/02/13 13:15:54;;;;;;;0.20;0.20;;;;;;;;;;5043388;28;20112;-85
2022/02/13 13:18:39;;;;;;;0.20;0.20;;;;;;;;;;5042970;28;20033;-85
2022/02/13 13:21:14;;;;;;;0.30;0.30;;;;;;;;;;5029572;28;20034;-85
2022/02/13 13:24:02;;;;;;;0.20;0.20;;;;;;;;;;5043085;28;20025;-84
2022/02/13 13:26:32;;;;;;;0.20;0.20;;;;;;;;;;5040569;28;20032;-85
2022/02/13 13:29:00;;;;;;;0.20;0.20;;;;;;;;;;5043868;28;20098;-85
2022/02/13 13:31:26;;;;;;;0.20;0.20;;;;;;;;;;5042928;28;20055;-86
2022/02/13 13:34:02;;;;;;;0.20;0.20;;;;;;;;;;5042841;28;20896;-84
2022/02/13 13:36:29;;;;;;;0.20;0.20;;;;;;;;;;5043031;28;20039;-84
2022/02/13 13:38:55;;;;;;;0.20;0.20;;;;;;;;;;5043122;28;20075;-84
2022/02/13 13:41:31;;;;;;;0.30;0.30;;;;;;;;;;5043845;28;20028;-84
2022/02/13 13:43:57;;;;;;;0.22;0.22;;;;;;;;;;5043261;28;20033;-85
2022/02/13 13:46:26;;;;;;;0.20;0.20;;;;;;;;;;5042131;28;20112;-84
2022/02/13 13:48:52;;;;;;;0.20;0.20;;;;;;;;;;5042700;28;20071;-85
2022/02/13 13:51:18;;;;;;;0.30;0.30;;;;;;;;;;5042965;28;20033;-84
2022/02/13 13:53:44;;;;;;;0.20;0.20;;;;;;;;;;5024924;28;20100;-85
2022/02/13 13:56:11;;;;;;;0.20;0.20;;;;;;;;;;5043379;28;20047;-85
2022/02/13 13:58:37;;;;;;;0.20;0.20;;;;;;;;;;5038882;28;20033;-84
2022/02/13 14:01:03;;;;;;;0.27;0.27;;;;;;;;;;5042952;28;20036;-85
2022/02/13 14:03:29;;;;;;;0.70;0.70;;;;;;;;;;5039091;28;20027;-84
2022/02/13 14:05:55;;;;;;;0.40;0.40;;;;;;;;;;5043405;28;20095;-85
2022/02/13 14:08:21;;;;;;;0.40;0.40;;;;;;;;;;5043085;28;20028;-85
2022/02/13 14:10:47;;;;;;;0.40;0.40;;;;;;;;;;5043351;28;20029;-85
2022/02/13 14:13:13;;;;;;;0.30;0.30;;;;;;;;;;5042940;28;20047;-85
2022/02/13 14:15:41;;;;;;;0.30;0.30;;;;;;;;;;5041232;28;20048;-86
2022/02/13 14:18:07;;;;;;;0.30;0.30;;;;;;;;;;5042374;28;20078;-85
2022/02/13 14:20:33;;;;;;;0.40;0.40;;;;;;;;;;5042958;28;20774;-86
2022/02/13 14:23:00;;;;;;;0.30;0.30;;;;;;;;;;5042881;28;20263;-86
2022/02/13 14:25:26;;;;;;;0.30;0.30;;;;;;;;;;5042224;28;20029;-86
2022/02/13 14:27:53;;;;;;;0.30;0.30;;;;;;;;;;5042503;28;20024;-86
2022/02/13 14:30:19;;;;;;;0.30;0.30;;;;;;;;;;5042230;28;20098;-85
2022/02/13 14:32:45;;;;;;;0.30;0.30;;;;;;;;;;5024146;28;20040;-85
2022/02/13 14:35:12;;;;;;;1.05;1.05;;;;;;;;;;5042912;28;20389;-86
2022/02/13 14:37:39;;;;;;;0.30;0.30;;;;;;;;;;5041832;28;20119;-85
2022/02/13 14:40:05;;;;;;;0.30;0.30;;;;;;;;;;5042407;28;20024;-85
2022/02/13 14:42:31;;;;;;;0.30;0.30;;;;;;;;;;5041986;28;20496;-85
2022/02/13 14:44:57;;;;;;;0.30;0.30;;;;;;;;;;5040818;28;20025;-86